createdAt,value
2022-10-15T00:02:43.846Z,101690.56
2022-10-15T00:07:48.569Z,101693.94
2022-10-15T00:12:52.470Z,101686.38
2022-10-15T00:17:54.774Z,101677.03
2022-10-15T00:22:56.661Z,101691.50
2022-10-15T00:27:59.711Z,101680.19
2022-10-15T00:33:05.557Z,101673.63
2022-10-15T00:38:15.656Z,101669.53
2022-10-15T00:43:39.114Z,101677.34
2022-10-15T00:48:44.292Z,101669.66
2022-10-15T00:54:00.259Z,101659.72
2022-10-15T00:59:12.719Z,101665.84
2022-10-15T01:05:13.359Z,101656.75
2022-10-15T01:10:16.924Z,101651.50
2022-10-15T01:15:26.077Z,101644.34
2022-10-15T01:20:54.869Z,101637.16
2022-10-15T01:27:00.246Z,101641.06
2022-10-15T01:32:49.130Z,101637.59
2022-10-15T01:38:35.539Z,101636.34
2022-10-15T01:43:53.696Z,101625.97
2022-10-15T01:49:06.090Z,101623.63
2022-10-15T01:54:14.406Z,101601.91
2022-10-15T01:59:22.338Z,101614.72
2022-10-15T02:04:35.116Z,101602.09
2022-10-15T02:10:16.608Z,101596.78
2022-10-15T02:15:48.184Z,101595.81
2022-10-15T02:20:58.574Z,101589.25
2022-10-15T02:26:05.567Z,101568.88
2022-10-15T02:31:12.917Z,101556.81
2022-10-15T02:36:19.952Z,101561.81
2022-10-15T02:41:26.031Z,101557.72
2022-10-15T02:46:56.383Z,101559.66
2022-10-15T02:52:00.140Z,101556.38
2022-10-15T02:57:09.149Z,101546.47
2022-10-15T03:02:15.324Z,101542.06
2022-10-15T03:07:26.635Z,101542.66
2022-10-15T03:12:31.119Z,101546.56
2022-10-15T03:17:33.852Z,101540.31
2022-10-15T03:22:35.986Z,101542.84
2022-10-15T03:27:39.019Z,101546.22
2022-10-15T03:32:52.017Z,101541.81
2022-10-15T03:37:57.224Z,101540.19
2022-10-15T03:43:15.312Z,101528.06
2022-10-15T03:48:37.128Z,101533.47
2022-10-15T03:53:39.108Z,101529.38
2022-10-15T03:58:46.305Z,101525.56
2022-10-15T04:03:58.333Z,101528.63
2022-10-15T04:09:03.582Z,101533.94
2022-10-15T04:14:08.768Z,101519.31
2022-10-15T04:19:13.061Z,101529.53
2022-10-15T04:24:16.911Z,101518.19
2022-10-15T04:29:24.249Z,101521.25
2022-10-15T04:34:28.672Z,101513.59
2022-10-15T04:39:30.716Z,101514.72
2022-10-15T04:44:32.901Z,101522.78
2022-10-15T04:49:35.980Z,101522.56
2022-10-15T04:54:43.967Z,101516.31
2022-10-15T04:59:53.851Z,101512.19
2022-10-15T05:05:18.438Z,101517.16
2022-10-15T05:10:29.157Z,101516.09
2022-10-15T05:15:37.427Z,101516.59
2022-10-15T05:20:43.392Z,101521.22
2022-10-15T05:25:53.137Z,101516.94
2022-10-15T05:31:18.593Z,101515.75
2022-10-15T05:36:47.690Z,101523.94
2022-10-15T05:41:55.843Z,101514.75
2022-10-15T05:47:13.471Z,101519.16
2022-10-15T05:52:21.334Z,101516.09
2022-10-15T05:57:48.824Z,101520.47
2022-10-15T06:08:06.593Z,101518.75
2022-10-15T06:13:09.111Z,101517.63
2022-10-15T06:18:16.515Z,101527.25
2022-10-15T06:23:19.032Z,101512.03
2022-10-15T06:28:21.022Z,101521.97
2022-10-15T06:33:25.954Z,101520.09
2022-10-15T06:38:28.080Z,101517.13
2022-10-15T06:43:38.289Z,101524.56
2022-10-15T06:48:41.180Z,101524.38
2022-10-15T06:53:43.964Z,101520.47
2022-10-15T07:04:13.683Z,101522.69
2022-10-15T07:09:15.923Z,101526.00
2022-10-15T07:14:18.109Z,101521.13
2022-10-15T07:19:20.120Z,101528.75
2022-10-15T07:24:33.131Z,101527.34
2022-10-15T07:29:36.361Z,101526.28
2022-10-15T07:34:38.485Z,101529.25
2022-10-15T07:39:49.413Z,101520.78
2022-10-15T07:44:56.080Z,101534.59
2022-10-15T07:49:58.045Z,101539.66
2022-10-15T07:54:59.922Z,101535.47
2022-10-15T08:00:02.550Z,101545.19
2022-10-15T08:05:27.283Z,101543.09
2022-10-15T08:10:32.162Z,101546.59
2022-10-15T08:15:40.399Z,101542.47
2022-10-15T08:20:42.429Z,101543.91
2022-10-15T08:25:45.052Z,101542.25
2022-10-15T08:30:48.698Z,101536.34
2022-10-15T08:35:50.785Z,101533.59
2022-10-15T08:41:04.287Z,101523.94
2022-10-15T08:46:12.869Z,101525.44
2022-10-15T08:51:23.435Z,101530.00
2022-10-15T09:02:17.631Z,101528.66
2022-10-15T09:08:03.335Z,101519.53
2022-10-15T09:13:16.522Z,101527.00
2022-10-15T09:18:29.343Z,101524.84
2022-10-15T09:23:37.247Z,101523.94
2022-10-15T09:28:47.728Z,101518.94
2022-10-15T09:34:33.646Z,101524.06
2022-10-15T09:40:10.721Z,101509.66
2022-10-15T09:45:17.577Z,101518.50
2022-10-15T09:50:19.713Z,101514.88
2022-10-15T09:55:30.074Z,101518.94
2022-10-15T10:00:59.966Z,101522.19
2022-10-15T10:06:17.448Z,101523.25
2022-10-15T10:11:26.048Z,101517.97
2022-10-15T10:16:31.692Z,101517.84
2022-10-15T10:22:13.625Z,101527.13
2022-10-15T10:27:29.580Z,101524.09
2022-10-15T10:32:58.991Z,101512.59
2022-10-15T10:38:01.750Z,101515.66
2022-10-15T10:43:29.879Z,101515.41
2022-10-15T10:49:14.782Z,101505.16
2022-10-15T10:54:19.515Z,101499.13
2022-10-15T10:59:36.449Z,101497.97
2022-10-15T11:04:40.401Z,101495.44
2022-10-15T11:10:17.579Z,101496.91
2022-10-15T11:15:47.523Z,101490.56
2022-10-15T11:21:26.485Z,101484.19
2022-10-15T11:27:10.117Z,101485.22
2022-10-15T11:32:25.590Z,101485.34
2022-10-15T11:37:34.738Z,101478.03
2022-10-15T11:42:53.643Z,101461.94
2022-10-15T11:48:21.722Z,101457.50
2022-10-15T11:53:52.968Z,101454.47
2022-10-15T11:58:59.978Z,101445.78
2022-10-15T12:04:44.431Z,101439.13
2022-10-15T12:09:52.442Z,101423.63
2022-10-15T12:15:26.680Z,101411.06
2022-10-15T12:20:28.964Z,101416.13
2022-10-15T12:25:42.689Z,101405.16
2022-10-15T12:30:56.600Z,101400.75
2022-10-15T12:36:29.105Z,101385.16
2022-10-15T12:41:44.259Z,101376.75
2022-10-15T12:46:47.150Z,101376.19
2022-10-15T12:52:05.558Z,101349.47
2022-10-15T12:57:57.961Z,101334.72
2022-10-15T13:03:24.595Z,101338.94
2022-10-15T13:08:30.619Z,101318.53
2022-10-15T13:13:40.115Z,101315.84
2022-10-15T13:18:48.438Z,101327.78
2022-10-15T13:23:52.244Z,101319.19
2022-10-15T13:29:06.688Z,101312.72
2022-10-15T13:34:29.447Z,101309.47
2022-10-15T13:39:40.983Z,101295.06
2022-10-15T13:44:47.279Z,101282.97
2022-10-15T13:49:49.280Z,101291.09
2022-10-15T13:54:51.407Z,101288.31
2022-10-15T13:59:54.182Z,101281.38
2022-10-15T14:05:21.624Z,101291.16
2022-10-15T14:10:27.230Z,101277.56
2022-10-15T14:21:15.486Z,101287.69
2022-10-15T14:26:31.744Z,101287.25
2022-10-15T14:31:46.645Z,101287.25
2022-10-15T14:36:49.602Z,101296.53
2022-10-15T14:42:27.447Z,101283.06
2022-10-15T14:47:35.003Z,101272.97
2022-10-15T14:52:45.156Z,101276.34
2022-10-15T14:57:50.857Z,101269.50
2022-10-15T15:02:58.696Z,101273.28
2022-10-15T15:08:06.623Z,101276.88
2022-10-15T15:13:16.985Z,101267.22
2022-10-15T15:18:22.505Z,101266.84
2022-10-15T15:23:34.249Z,101265.44
2022-10-15T15:28:40.178Z,101261.84
2022-10-15T15:33:42.554Z,101259.06
2022-10-15T15:38:44.812Z,101261.03
2022-10-15T15:43:50.237Z,101261.84
2022-10-15T15:48:52.505Z,101271.44
2022-10-15T15:53:55.622Z,101263.78
2022-10-15T15:58:57.612Z,101255.88
2022-10-15T16:04:00.653Z,101257.38
2022-10-15T16:09:03.693Z,101251.81
2022-10-15T16:14:09.330Z,101255.63
2022-10-15T16:19:17.802Z,101263.84
2022-10-15T16:24:22.806Z,101269.63
2022-10-15T16:29:25.036Z,101268.00
2022-10-15T16:34:27.885Z,101267.19
2022-10-15T16:39:29.988Z,101246.06
2022-10-15T16:44:39.805Z,101247.06
2022-10-15T16:49:43.439Z,101247.06
2022-10-15T16:54:45.932Z,101255.06
2022-10-15T16:59:51.036Z,101259.34
2022-10-15T17:04:53.544Z,101252.63
2022-10-15T17:09:57.228Z,101259.34
2022-10-15T17:14:59.376Z,101264.44
2022-10-15T17:20:10.617Z,101257.72
2022-10-15T17:25:19.595Z,101272.16
2022-10-15T17:30:24.301Z,101284.19
2022-10-15T17:40:44.548Z,101286.56
2022-10-15T17:45:48.049Z,101293.50
2022-10-15T17:50:59.164Z,101291.94
2022-10-15T17:56:10.624Z,101307.50
2022-10-15T18:01:27.932Z,101310.00
2022-10-15T18:06:51.543Z,101315.78
2022-10-15T18:12:06.666Z,101318.88
2022-10-15T18:17:11.612Z,101333.59
2022-10-15T18:22:13.536Z,101322.81
2022-10-15T18:27:15.742Z,101339.81
2022-10-15T18:32:18.711Z,101338.19
2022-10-15T18:37:20.560Z,101337.34
2022-10-15T18:42:22.701Z,101342.59
2022-10-15T18:47:26.610Z,101354.88
2022-10-15T18:52:39.769Z,101351.91
2022-10-15T18:57:45.542Z,101356.19
2022-10-15T19:02:47.449Z,101353.72
2022-10-15T19:07:55.960Z,101360.09
2022-10-15T19:12:58.284Z,101367.28
2022-10-15T19:18:00.750Z,101368.91
2022-10-15T19:23:03.050Z,101376.09
2022-10-15T19:28:05.424Z,101377.25
2022-10-15T19:33:08.599Z,101382.34
2022-10-15T19:38:11.444Z,101371.22
2022-10-15T19:43:21.554Z,101380.22
2022-10-15T19:48:25.641Z,101385.28
2022-10-15T19:53:47.078Z,101399.81
2022-10-15T19:58:54.217Z,101398.84
2022-10-15T20:04:06.211Z,101404.75
2022-10-15T20:09:10.441Z,101395.94
2022-10-15T20:14:13.071Z,101397.06
2022-10-15T20:19:15.045Z,101402.31
2022-10-15T20:24:20.282Z,101413.41
2022-10-15T20:29:25.063Z,101415.72
2022-10-15T20:34:52.530Z,101420.78
2022-10-15T20:45:08.893Z,101431.06
2022-10-15T20:50:17.181Z,101426.19
2022-10-15T20:55:21.783Z,101426.50
2022-10-15T21:00:26.750Z,101439.91
2022-10-15T21:05:29.052Z,101439.09
2022-10-15T21:10:30.925Z,101437.81
2022-10-15T21:15:47.162Z,101433.41
2022-10-15T21:20:49.040Z,101452.34
2022-10-15T21:25:50.976Z,101444.34
2022-10-15T21:31:06.672Z,101450.22
2022-10-15T21:36:28.094Z,101452.19
2022-10-15T21:41:33.817Z,101460.84
2022-10-15T21:46:40.609Z,101467.56
2022-10-15T21:51:42.583Z,101477.03
2022-10-15T21:56:46.011Z,101463.47
2022-10-15T22:01:53.664Z,101472.63
2022-10-15T22:06:57.279Z,101460.69
2022-10-15T22:11:59.866Z,101465.44
2022-10-15T22:17:03.115Z,101462.16
2022-10-15T22:22:06.178Z,101469.19
2022-10-15T22:27:08.551Z,101476.22
2022-10-15T22:32:12.078Z,101481.28
2022-10-15T22:37:15.193Z,101482.28
2022-10-15T22:42:17.054Z,101484.06
2022-10-15T22:47:18.934Z,101490.59
2022-10-15T22:52:20.856Z,101497.63
2022-10-15T22:57:29.361Z,101495.81
2022-10-15T23:02:33.271Z,101494.81
2022-10-15T23:07:38.827Z,101491.41
2022-10-15T23:12:40.945Z,101497.44
2022-10-15T23:17:44.226Z,101491.50
2022-10-15T23:22:46.442Z,101487.25
2022-10-15T23:27:49.867Z,101489.38
2022-10-15T23:33:16.685Z,101478.28
2022-10-15T23:38:24.347Z,101471.25
2022-10-15T23:43:26.390Z,101472.53
2022-10-15T23:48:29.802Z,101468.28
2022-10-15T23:53:35.676Z,101462.41
